Time;durP1;ratioP1;P1;durP2;ratioP2;P2;SDS_P1;SDS_P2;PMS_P1;PMS_P2;Temp;Humidity;BMP_temperature;BMP_pressure;BME280_temperature;BME280_humidity;BME280_pressure;Samples;Min_cycle;Max_cycle;Signal;HPM_P1;HPM_P2
2021/10/26 00:01:54;;;;;;;4.40;3.67;;;;;;;7.80;70.23;99279.31;5112661;27;40104;-77
2021/10/26 00:04:22;;;;;;;5.53;3.97;;;;;;;7.87;70.23;99279.91;5129907;27;41745;-77
2021/10/26 00:06:50;;;;;;;5.57;3.43;;;;;;;7.94;70.28;99276.06;5112831;27;42836;-77
2021/10/26 00:09:18;;;;;;;5.27;3.90;;;;;;;8.00;70.59;99275.78;5129882;27;41970;-77
2021/10/26 00:11:46;;;;;;;7.23;5.23;;;;;;;8.08;71.05;99278.94;5129381;27;39187;-77
2021/10/26 00:14:13;;;;;;;7.03;4.00;;;;;;;8.12;71.44;99283.16;5130846;27;42253;-77
2021/10/26 00:16:41;;;;;;;5.57;3.93;;;;;;;8.16;70.70;99287.34;5129125;27;43865;-77
2021/10/26 00:19:08;;;;;;;5.23;3.23;;;;;;;8.22;70.14;99297.63;5129582;27;42411;-77
2021/10/26 00:21:36;;;;;;;4.57;3.67;;;;;;;8.29;69.92;99309.59;5146845;27;39845;-77
2021/10/26 00:24:04;;;;;;;8.20;3.70;;;;;;;8.21;69.60;99290.63;5139526;27;41759;-77
2021/10/26 00:26:33;;;;;;;6.03;4.00;;;;;;;8.40;69.65;99309.16;5150548;27;42099;-77
2021/10/26 00:29:01;;;;;;;4.50;3.37;;;;;;;8.45;69.59;99308.91;5149586;27;42432;-77
2021/10/26 00:31:29;;;;;;;4.40;3.10;;;;;;;8.51;69.11;99322.72;5132744;27;39155;-77
2021/10/26 00:33:56;;;;;;;3.80;3.37;;;;;;;8.57;69.07;99316.25;5132408;27;40829;-77
2021/10/26 00:36:24;;;;;;;3.57;2.77;;;;;;;8.55;69.13;99299.63;5150912;27;43826;-77
2021/10/26 00:38:52;;;;;;;3.60;2.97;;;;;;;8.64;69.04;99312.44;5150127;27;42072;-77
2021/10/26 00:41:20;;;;;;;4.27;3.40;;;;;;;8.52;68.97;99283.97;5149451;27;39838;-77
2021/10/26 00:43:50;;;;;;;7.90;3.70;;;;;;;8.66;69.26;99292.06;5134182;27;40788;-77
2021/10/26 00:46:27;;;;;;;4.87;3.30;;;;;;;8.69;69.59;99305.13;5136065;27;41760;-77
2021/10/26 00:48:55;;;;;;;3.77;2.87;;;;;;;8.70;68.82;99298.91;5154208;27;43222;-77
2021/10/26 00:51:22;;;;;;;4.53;3.07;;;;;;;8.74;69.03;99300.50;5153804;27;40009;-77
2021/10/26 00:54:26;;;;;;;5.03;2.67;;;;;;;8.78;68.80;99307.31;5153457;27;41686;-77
2021/10/26 00:56:59;;;;;;;2.57;2.27;;;;;;;8.80;68.63;99316.03;5136676;27;42493;-77
2021/10/26 00:59:28;;;;;;;2.33;2.10;;;;;;;8.84;68.44;99312.31;5153802;27;42289;-77
2021/10/26 01:01:59;;;;;;;2.80;2.60;;;;;;;8.87;68.59;99309.53;5153142;27;40182;-77
2021/10/26 01:04:29;;;;;;;6.57;3.40;;;;;;;8.89;69.28;99309.47;5154043;27;41659;-77
2021/10/26 01:06:57;;;;;;;4.27;3.40;;;;;;;8.82;70.17;99286.91;5147450;27;42929;-77
2021/10/26 01:09:28;;;;;;;4.80;3.30;;;;;;;8.87;70.21;99293.69;5136122;27;41204;-78
2021/10/26 01:11:57;;;;;;;6.87;3.90;;;;;;;8.82;69.80;99281.63;5136502;27;38796;-77
2021/10/26 01:14:25;;;;;;;5.47;3.73;;;;;;;8.96;69.63;99308.22;5135388;27;40968;-77
2021/10/26 01:17:05;;;;;;;3.67;3.00;;;;;;;9.02;69.72;99299.16;5136139;27;41680;-77
2021/10/26 01:19:44;;;;;;;4.23;2.97;;;;;;;8.91;69.17;99276.75;5153132;27;42194;-77
2021/10/26 01:22:12;;;;;;;4.33;2.70;;;;;;;9.10;69.14;99307.56;5135572;27;40131;-77
2021/10/26 01:24:40;;;;;;;5.07;3.23;;;;;;;8.98;69.36;99283.47;5137532;27;42367;-77
2021/10/26 01:27:09;;;;;;;4.57;2.90;;;;;;;9.06;69.36;99291.00;5132178;27;43052;-77
2021/10/26 01:29:37;;;;;;;3.93;2.63;;;;;;;9.14;69.38;99303.84;5114708;27;41199;-77
2021/10/26 01:32:08;;;;;;;3.70;3.30;;;;;;;9.14;69.05;99309.13;5114871;27;38967;-77
2021/10/26 01:34:40;;;;;;;5.60;3.03;;;;;;;9.02;69.09;99288.59;5132567;27;43050;-77
2021/10/26 01:37:11;;;;;;;4.77;2.87;;;;;;;9.20;69.14;99316.72;5113801;27;41885;-77
2021/10/26 01:39:40;;;;;;;3.80;2.37;;;;;;;9.22;68.88;99312.22;5131688;27;43271;-78
2021/10/26 01:42:10;;;;;;;4.30;2.90;;;;;;;9.23;69.15;99316.59;5131969;27;40869;-77
2021/10/26 01:44:38;;;;;;;4.53;3.30;;;;;;;9.13;69.16;99296.84;5131683;27;41767;-77
2021/10/26 01:47:13;;;;;;;3.93;2.73;;;;;;;9.22;69.22;99312.22;5114437;27;41693;-77
2021/10/26 01:49:41;;;;;;;3.63;3.13;;;;;;;9.22;68.91;99309.59;5131293;27;41939;-77
2021/10/26 01:52:10;;;;;;;2.93;2.30;;;;;;;9.23;68.79;99308.66;5114572;27;38738;-77
2021/10/26 01:54:38;;;;;;;6.53;3.00;;;;;;;9.25;69.01;99312.09;5133494;27;41472;-77
2021/10/26 01:57:08;;;;;;;4.47;2.83;;;;;;;9.14;68.71;99290.63;5114412;27;42160;-79
2021/10/26 01:59:48;;;;;;;3.33;2.90;;;;;;;9.26;69.28;99319.09;5114647;27;42581;-77
2021/10/26 02:02:17;;;;;;;4.40;3.03;;;;;;;9.27;69.12;99310.22;5131185;27;40079;-77
2021/10/26 02:04:46;;;;;;;3.87;2.93;;;;;;;9.25;69.69;99306.81;5131591;27;41821;-77
2021/10/26 02:07:15;;;;;;;4.20;2.83;;;;;;;9.25;69.55;99306.81;5131442;27;42693;-76
2021/10/26 02:09:45;;;;;;;5.13;3.53;;;;;;;9.26;69.50;99311.16;5130967;27;42354;-78
2021/10/26 02:12:15;;;;;;;2.63;2.40;;;;;;;9.27;69.59;99318.97;5131204;27;40969;-77
2021/10/26 02:14:43;;;;;;;3.53;2.70;;;;;;;9.30;69.06;99315.34;5113982;27;40362;-77
2021/10/26 02:17:11;;;;;;;5.13;2.77;;;;;;;9.32;69.05;99324.06;5130131;27;43726;-76
2021/10/26 02:19:39;;;;;;;2.60;2.40;;;;;;;9.33;69.29;99325.75;5113961;27;41104;-76
2021/10/26 02:22:07;;;;;;;4.17;3.23;;;;;;;9.33;69.51;99336.34;5130852;27;42244;-77
2021/10/26 02:24:36;;;;;;;3.30;2.90;;;;;;;9.33;69.33;99325.75;5142047;27;42741;-76
2021/10/26 02:27:04;;;;;;;5.17;3.33;;;;;;;9.28;70.60;99315.41;5113492;27;42857;-77
2021/10/26 02:29:32;;;;;;;5.97;3.30;;;;;;;9.30;70.58;99326.75;5131229;27;41532;-77
2021/10/26 02:32:06;;;;;;;5.03;3.37;;;;;;;9.28;70.23;99311.91;5130815;27;40950;-77
2021/10/26 02:34:35;;;;;;;5.13;3.60;;;;;;;9.35;70.14;99321.25;5130906;27;41598;-77
2021/10/26 02:37:02;;;;;;;4.70;2.97;;;;;;;9.33;70.36;99320.47;5114050;27;41873;-77
2021/10/26 02:39:31;;;;;;;4.50;3.00;;;;;;;9.35;70.27;99314.19;5114052;27;41441;-77
2021/10/26 02:42:00;;;;;;;3.03;2.73;;;;;;;9.38;70.48;99318.47;5130154;27;39676;-77
2021/10/26 02:44:31;;;;;;;3.97;2.43;;;;;;;9.39;71.26;99306.13;5130749;27;41823;-76
2021/10/26 02:46:59;;;;;;;6.13;3.53;;;;;;;9.35;71.83;99308.91;5130584;27;43728;-77
2021/10/26 02:49:26;;;;;;;4.57;3.40;;;;;;;9.32;72.40;99306.41;5131040;27;42158;-77
2021/10/26 02:51:55;;;;;;;5.73;3.87;;;;;;;9.29;72.57;99303.06;5129739;27;40054;-77
2021/10/26 02:54:23;;;;;;;4.60;3.60;;;;;;;9.28;72.68;99302.19;5130761;27;42736;-77
2021/10/26 02:56:51;;;;;;;5.73;3.77;;;;;;;9.28;72.68;99301.34;5113232;27;42885;-77
2021/10/26 02:59:21;;;;;;;5.70;3.40;;;;;;;9.26;72.62;99297.94;5130763;27;42436;-77
2021/10/26 03:01:48;;;;;;;4.17;2.97;;;;;;;9.26;72.42;99303.22;5113384;27;40450;-77
2021/10/26 03:04:16;;;;;;;4.73;3.67;;;;;;;9.27;72.17;99315.50;5112580;27;40563;-77
2021/10/26 03:06:44;;;;;;;4.17;2.87;;;;;;;9.28;71.76;99319.84;5129499;27;43795;-77
2021/10/26 03:09:12;;;;;;;3.47;3.17;;;;;;;9.27;71.81;99316.34;5130717;27;43168;-78
2021/10/26 03:11:40;;;;;;;2.87;2.67;;;;;;;9.31;71.66;99322.34;5131323;27;39625;-77
2021/10/26 03:14:08;;;;;;;4.23;3.23;;;;;;;9.31;71.36;99328.47;5113233;27;40808;-78
2021/10/26 03:16:37;;;;;;;3.23;2.67;;;;;;;9.20;71.44;99308.81;5128698;27;42686;-77
2021/10/26 03:19:05;;;;;;;5.27;3.33;;;;;;;9.31;71.43;99332.91;5112855;27;42546;-77
2021/10/26 03:21:37;;;;;;;3.73;2.80;;;;;;;9.32;71.47;99335.47;5113217;27;39350;-78
2021/10/26 03:24:06;;;;;;;4.13;2.93;;;;;;;9.19;71.39;99301.81;5113268;27;40824;-77
2021/10/26 03:26:35;;;;;;;4.23;3.57;;;;;;;9.42;71.65;99346.44;5129538;27;42861;-77
2021/10/26 03:29:06;;;;;;;5.30;3.37;;;;;;;9.44;71.50;99339.28;5112239;27;40917;-77
2021/10/26 03:31:34;;;;;;;3.80;3.33;;;;;;;9.45;71.48;99341.00;5129652;27;39455;-77
2021/10/26 03:34:22;;;;;;;3.03;2.57;;;;;;;9.47;71.25;99341.78;5130037;27;40975;-77
2021/10/26 03:36:49;;;;;;;6.03;3.53;;;;;;;9.39;71.37;99319.34;5130735;27;43489;-77
2021/10/26 03:39:17;;;;;;;4.50;3.63;;;;;;;9.51;71.40;99339.88;5129808;27;42075;-76
2021/10/26 03:41:44;;;;;;;3.63;2.67;;;;;;;9.53;71.27;99352.03;5129523;27;39892;-77
2021/10/26 03:44:12;;;;;;;4.23;3.00;;;;;;;9.53;71.23;99343.25;5129946;27;42654;-77
2021/10/26 03:46:39;;;;;;;3.00;2.70;;;;;;;9.51;71.40;99351.28;5113528;27;41808;-77
2021/10/26 03:49:09;;;;;;;4.77;2.87;;;;;;;9.52;71.36;99352.97;5114095;27;41492;-77
2021/10/26 03:51:38;;;;;;;4.47;3.30;;;;;;;9.54;71.31;99355.53;5113055;27;38684;-77
2021/10/26 03:54:06;;;;;;;5.20;3.40;;;;;;;9.55;71.34;99347.53;5112602;27;40537;-77
2021/10/26 03:56:34;;;;;;;4.87;3.40;;;;;;;9.57;71.28;99350.97;5129715;27;42577;-77
2021/10/26 03:59:09;;;;;;;3.10;2.80;;;;;;;9.58;71.53;99352.69;5129742;27;42417;-77
2021/10/26 04:01:36;;;;;;;4.77;2.97;;;;;;;9.60;71.43;99356.13;5129283;27;40898;-76
2021/10/26 04:04:05;;;;;;;3.60;2.57;;;;;;;9.64;71.12;99357.66;5113117;27;41018;-77
2021/10/26 04:06:33;;;;;;;2.93;2.37;;;;;;;9.66;70.85;99365.50;5112808;27;42915;-77
2021/10/26 04:09:05;;;;;;;3.17;2.70;;;;;;;9.68;71.17;99368.94;5112099;27;41630;-77
2021/10/26 04:11:39;;;;;;;4.40;2.67;;;;;;;9.69;70.76;99360.94;5150293;27;40054;-76
2021/10/26 04:14:07;;;;;;;3.97;2.97;;;;;;;9.69;71.07;99358.28;5153688;27;41946;-78
2021/10/26 04:16:35;;;;;;;3.63;2.43;;;;;;;9.67;70.93;99352.22;5133100;27;43040;-78
2021/10/26 04:19:03;;;;;;;3.20;2.73;;;;;;;9.75;70.82;99361.56;5135618;27;40647;-76
2021/10/26 04:21:31;;;;;;;3.90;2.30;;;;;;;9.77;70.89;99372.91;5136288;27;39069;-77
2021/10/26 04:24:00;;;;;;;3.03;2.30;;;;;;;9.78;70.96;99374.59;5126933;27;40195;-77
2021/10/26 04:26:29;;;;;;;3.27;2.10;;;;;;;9.77;71.02;99375.56;5116335;27;43021;-77
2021/10/26 04:28:57;;;;;;;3.63;2.60;;;;;;;9.73;71.17;99372.22;5115682;27;41304;-77
2021/10/26 04:31:24;;;;;;;2.77;2.57;;;;;;;9.70;71.02;99373.22;5132515;27;39873;-77
2021/10/26 04:33:52;;;;;;;2.37;2.17;;;;;;;9.70;71.13;99369.72;5115671;27;41155;-77
2021/10/26 04:36:20;;;;;;;3.30;2.23;;;;;;;9.66;71.39;99378.72;5115253;27;43154;-77
2021/10/26 04:38:54;;;;;;;3.43;2.63;;;;;;;9.56;71.29;99357.19;5132947;27;42220;-77
2021/10/26 04:41:22;;;;;;;4.80;3.07;;;;;;;9.64;71.35;99377.97;5121128;27;39476;-77
2021/10/26 04:43:52;;;;;;;4.13;3.00;;;;;;;9.64;71.62;99373.50;5132752;27;42655;-77
2021/10/26 04:46:19;;;;;;;3.33;2.87;;;;;;;9.62;71.92;99375.41;5131833;27;43474;-77
2021/10/26 04:48:48;;;;;;;2.90;2.30;;;;;;;9.58;71.76;99371.19;5131831;27;42960;-78
2021/10/26 04:51:16;;;;;;;4.27;2.93;;;;;;;9.63;71.87;99377.13;5154022;27;41326;-77
2021/10/26 04:53:43;;;;;;;3.30;2.10;;;;;;;9.59;71.94;99374.69;5136192;27;41702;-76
2021/10/26 04:56:11;;;;;;;5.30;3.37;;;;;;;9.52;71.85;99368.84;5151208;27;43557;-77
2021/10/26 04:59:01;;;;;;;3.03;2.53;;;;;;;9.61;71.85;99386.91;5126169;27;42361;-77
2021/10/26 05:01:28;;;;;;;2.70;2.40;;;;;;;9.64;71.90;99381.44;5137364;27;40634;-77
2021/10/26 05:03:56;;;;;;;3.33;2.80;;;;;;;9.69;71.92;99386.53;5131494;27;41815;-76
2021/10/26 05:06:24;;;;;;;3.13;2.70;;;;;;;9.72;71.84;99383.72;5131967;27;42800;-77
2021/10/26 05:08:53;;;;;;;3.60;3.03;;;;;;;9.77;72.73;99383.50;5133486;27;42087;-76
2021/10/26 05:11:21;;;;;;;5.10;3.17;;;;;;;9.77;72.34;99383.50;5135370;27;41155;-76
2021/10/26 05:13:49;;;;;;;4.60;3.07;;;;;;;9.79;72.40;99387.75;5135824;27;41544;-77
2021/10/26 05:16:37;;;;;;;4.90;3.10;;;;;;;9.83;72.66;99380.53;5152341;27;42880;-77
2021/10/26 05:19:05;;;;;;;4.83;3.33;;;;;;;9.85;72.17;99389.25;5152743;27;42361;-77
2021/10/26 05:21:51;;;;;;;4.37;2.90;;;;;;;9.87;72.15;99390.03;5149834;27;39254;-77
2021/10/26 05:24:42;;;;;;;4.53;3.07;;;;;;;9.89;72.14;99388.16;5122371;27;42575;-77
2021/10/26 05:27:22;;;;;;;3.60;2.70;;;;;;;9.85;72.62;99387.47;5151499;27;42260;-77
2021/10/26 05:29:49;;;;;;;3.57;3.03;;;;;;;9.83;72.46;99384.03;5150154;27;42836;-77
2021/10/26 05:32:19;;;;;;;6.13;2.97;;;;;;;9.90;72.20;99397.78;5150206;27;40075;-77
2021/10/26 05:34:46;;;;;;;4.43;3.00;;;;;;;9.95;72.15;99403.72;5150410;27;41922;-77
2021/10/26 05:37:13;;;;;;;3.53;2.73;;;;;;;9.99;72.03;99405.28;5119037;27;41378;-77
2021/10/26 05:39:43;;;;;;;4.50;3.53;;;;;;;10.04;72.56;99401.44;5114267;27;42437;-77
2021/10/26 05:42:13;;;;;;;4.77;2.80;;;;;;;10.09;72.36;99410.00;5142994;27;39244;-77
2021/10/26 05:44:40;;;;;;;5.00;3.20;;;;;;;10.14;72.36;99409.75;5144667;27;41705;-77
2021/10/26 05:47:08;;;;;;;4.43;3.13;;;;;;;10.19;72.45;99409.56;5130803;27;41797;-78
2021/10/26 05:49:38;;;;;;;5.80;3.50;;;;;;;10.21;72.88;99408.56;5124627;27;40346;-77
2021/10/26 05:52:06;;;;;;;6.23;3.20;;;;;;;10.25;72.94;99414.56;5144004;27;38655;-77
2021/10/26 05:54:34;;;;;;;5.70;3.83;;;;;;;10.28;72.86;99409.94;5133466;27;40564;-77
2021/10/26 05:57:01;;;;;;;4.37;2.90;;;;;;;10.33;72.79;99420.28;5148094;27;43596;-77
2021/10/26 05:59:29;;;;;;;4.63;3.07;;;;;;;10.35;72.48;99416.63;5151084;27;41800;-76
2021/10/26 06:01:57;;;;;;;5.23;3.83;;;;;;;10.38;72.80;99420.91;5133905;27;40379;-76
2021/10/26 06:04:24;;;;;;;5.30;4.20;;;;;;;10.41;73.03;99412.78;5149066;27;41514;-77
2021/10/26 06:06:56;;;;;;;4.17;3.53;;;;;;;10.42;72.78;99420.66;5128148;27;42989;-77
2021/10/26 06:09:24;;;;;;;4.27;3.17;;;;;;;10.44;72.81;99426.72;5149917;27;42355;-77
2021/10/26 06:11:52;;;;;;;4.27;2.90;;;;;;;10.46;72.55;99420.50;5149141;27;40392;-77
2021/10/26 06:14:19;;;;;;;5.53;4.00;;;;;;;10.48;72.76;99431.88;5132541;27;40515;-77
2021/10/26 06:16:49;;;;;;;5.43;3.90;;;;;;;10.50;73.03;99424.72;5131935;27;41974;-77
2021/10/26 06:19:17;;;;;;;4.20;3.80;;;;;;;10.55;73.52;99430.59;5127326;27;44880;-78
2021/10/26 06:21:45;;;;;;;7.07;4.20;;;;;;;10.60;73.04;99433.88;5147041;27;40161;-81
2021/10/26 06:24:15;;;;;;;3.53;2.93;;;;;;;10.57;73.54;99423.44;5133094;27;40535;-78
2021/10/26 06:26:43;;;;;;;4.80;3.57;;;;;;;10.72;73.26;99439.38;5130654;27;42352;-77
2021/10/26 06:29:10;;;;;;;6.70;3.20;;;;;;;10.73;73.16;99429.63;5131576;27;41183;-80
2021/10/26 06:31:58;;;;;;;6.27;3.63;;;;;;;10.80;73.26;99431.84;5140400;27;40235;-76
2021/10/26 06:34:25;;;;;;;4.90;3.50;;;;;;;10.93;73.26;99447.94;5133189;27;43001;-77
2021/10/26 06:36:53;;;;;;;4.57;3.37;;;;;;;10.99;73.01;99449.41;5120573;27;42378;-78
2021/10/26 06:39:23;;;;;;;8.50;4.20;;;;;;;11.02;72.45;99451.88;5149233;27;42933;-77
2021/10/26 06:41:51;;;;;;;6.83;4.00;;;;;;;10.97;72.50;99443.34;5142096;27;38808;-78
2021/10/26 06:44:38;;;;;;;5.07;3.80;;;;;;;11.02;72.24;99457.16;5098658;27;40736;-79
2021/10/26 06:47:39;;;;;;;4.67;3.83;;;;;;;11.03;72.54;99465.03;5132869;27;43776;-77
2021/10/26 06:50:25;;;;;;;6.10;4.03;;;;;;;11.04;72.86;99464.09;5132533;27;41440;-78
2021/10/26 06:53:11;;;;;;;5.73;4.00;;;;;;;11.06;72.74;99475.47;5151019;27;40872;-78
2021/10/26 06:56:04;;;;;;;5.57;3.87;;;;;;;11.09;72.79;99482.41;5138996;27;40348;-78
2021/10/26 06:58:50;;;;;;;4.83;3.80;;;;;;;11.08;72.76;99483.34;5129415;27;43393;-79
2021/10/26 07:01:44;;;;;;;6.23;3.87;;;;;;;11.02;72.85;99478.38;5137956;27;42530;-79
2021/10/26 07:04:23;;;;;;;5.67;4.53;;;;;;;11.00;72.88;99474.97;5144947;27;39831;-77
2021/10/26 08:44:36;;;;;;;6.23;3.87;;;;;;;12.46;82.41;99551.56;5105128;28;20571;-76
2021/10/26 08:47:04;;;;;;;6.00;3.50;;;;;;;13.23;79.14;99538.84;5084169;28;39671;-77
2021/10/26 08:49:38;;;;;;;5.33;3.97;;;;;;;13.98;75.45;99542.03;5086546;28;43219;-79
2021/10/26 08:52:28;;;;;;;4.10;3.17;;;;;;;14.72;72.65;99545.03;5103027;28;41982;-80
2021/10/26 08:55:10;;;;;;;6.33;3.80;;;;;;;15.16;71.23;99550.94;5084734;28;42524;-79
2021/10/26 08:58:02;;;;;;;5.03;4.03;;;;;;;15.46;69.23;99541.59;5103955;28;40075;-79
2021/10/26 09:00:46;;;;;;;4.07;3.37;;;;;;;15.82;67.94;99557.78;5101338;28;44026;-79
2021/10/26 09:03:18;;;;;;;3.57;2.93;;;;;;;15.88;67.53;99552.84;5102605;28;42599;-79
2021/10/26 09:05:47;;;;;;;3.73;2.93;;;;;;;16.11;66.72;99576.03;5083257;28;41037;-77
2021/10/26 09:08:15;;;;;;;3.87;3.20;;;;;;;16.21;65.63;99567.34;5100626;28;39940;-80
2021/10/26 09:10:44;;;;;;;3.23;2.70;;;;;;;16.34;65.25;99570.81;5084044;28;42060;-77
2021/10/26 09:16:49;;;;;;;3.47;3.17;;;;;;;16.42;63.77;99579.97;5100569;28;41395;-79
2021/10/26 09:19:40;;;;;;;3.43;2.60;;;;;;;16.42;63.80;99579.13;5099405;28;40171;-79
2021/10/26 09:22:12;;;;;;;3.07;2.77;;;;;;;16.49;63.49;99575.00;5099755;28;41728;-79
2021/10/26 09:24:56;;;;;;;4.00;3.13;;;;;;;16.64;62.80;99579.22;5084994;28;41444;-79
2021/10/26 09:27:25;;;;;;;4.70;3.00;;;;;;;16.77;62.64;99573.81;5120542;27;42027;-76
2021/10/26 09:29:54;;;;;;;3.83;2.93;;;;;;;16.79;62.66;99562.03;5102352;28;39787;-76
2021/10/26 09:32:32;;;;;;;3.23;2.90;;;;;;;16.96;61.64;99584.78;5102645;28;42332;-79
2021/10/26 09:35:03;;;;;;;3.50;2.80;;;;;;;17.03;61.58;99578.00;5101606;28;42929;-76
2021/10/26 09:37:35;;;;;;;2.87;2.30;;;;;;;17.12;61.63;99573.75;5102790;28;41954;-77
2021/10/26 09:40:05;;;;;;;4.07;2.80;;;;;;;17.00;61.79;99547.94;5103140;28;41307;-75
2021/10/26 09:42:40;;;;;;;3.00;2.43;;;;;;;17.24;61.29;99580.81;5102698;28;41751;-75
2021/10/26 09:45:10;;;;;;;3.10;2.80;;;;;;;17.24;60.72;99583.50;5085682;28;42495;-78
2021/10/26 09:47:41;;;;;;;3.70;2.97;;;;;;;17.27;60.16;99593.13;5102058;28;42213;-75
2021/10/26 09:50:11;;;;;;;4.77;2.80;;;;;;;17.30;60.00;99592.88;5101370;28;40201;-75
2021/10/26 09:52:42;;;;;;;3.20;2.57;;;;;;;17.36;60.40;99566.47;5103410;28;41715;-78
2021/10/26 09:55:14;;;;;;;3.27;2.50;;;;;;;17.56;59.63;99587.16;5091866;28;41793;-76
2021/10/26 09:57:45;;;;;;;3.43;2.63;;;;;;;17.68;60.02;99588.03;5085859;28;43183;-77
2021/10/26 10:00:14;;;;;;;2.93;2.33;;;;;;;17.73;59.40;99593.03;5072762;28;39974;-77
2021/10/26 10:02:43;;;;;;;2.60;2.40;;;;;;;17.76;59.15;99595.47;5088922;28;41171;-79
2021/10/26 10:05:24;;;;;;;3.20;2.70;;;;;;;17.82;58.14;99601.19;5070618;28;41725;-74
2021/10/26 10:07:55;;;;;;;2.53;1.80;;;;;;;17.80;58.46;99610.34;5070318;28;41183;-75
2021/10/26 10:10:39;;;;;;;2.40;2.20;;;;;;;17.63;58.15;99610.78;5053885;28;38815;-75
2021/10/26 10:13:13;;;;;;;2.50;2.27;;;;;;;17.42;58.24;99594.59;5088788;28;42181;-78
2021/10/26 10:15:44;;;;;;;2.30;1.77;;;;;;;17.31;57.87;99592.75;5088438;28;42723;-79
2021/10/26 10:18:18;;;;;;;2.53;1.47;;;;;;;17.29;58.50;99593.84;5089568;28;42539;-76
2021/10/26 10:20:48;;;;;;;2.60;1.87;;;;;;;17.05;58.38;99569.84;5104156;27;39433;-80
2021/10/26 10:23:17;;;;;;;3.37;1.93;;;;;;;17.13;58.06;99597.72;5066586;28;40935;-77
2021/10/26 10:25:47;;;;;;;1.83;1.70;;;;;;;17.04;58.19;99600.28;5088043;28;41724;-75
2021/10/26 10:28:18;;;;;;;1.93;1.80;;;;;;;16.94;58.57;99605.44;5088462;28;43041;-77
2021/10/26 10:30:47;;;;;;;2.33;1.27;;;;;;;16.85;58.54;99609.69;5087656;28;39579;-77
2021/10/26 10:33:18;;;;;;;2.00;1.83;;;;;;;16.77;58.43;99598.72;5088629;28;42734;-77
2021/10/26 10:35:49;;;;;;;1.17;1.10;;;;;;;16.66;58.53;99598.69;5089295;28;42407;-77
2021/10/26 10:38:25;;;;;;;3.37;1.67;;;;;;;16.57;58.87;99598.50;5088248;28;42864;-81
2021/10/26 10:41:23;;;;;;;1.60;1.50;;;;;;;16.52;58.75;99597.03;5103383;28;40239;-76
2021/10/26 10:43:52;;;;;;;1.43;1.27;;;;;;;16.42;59.02;99577.31;5090360;28;42389;-81
2021/10/26 10:46:38;;;;;;;1.83;1.73;;;;;;;16.52;59.61;99591.69;5087856;28;42714;-78
2021/10/26 10:49:48;;;;;;;2.73;1.47;;;;;;;16.46;59.30;99586.78;5087567;28;43157;-77
2021/10/26 10:52:21;;;;;;;1.70;1.60;;;;;;;16.43;59.50;99591.53;5038808;28;42352;-82
2021/10/26 10:54:51;;;;;;;3.43;2.30;;;;;;;16.47;59.53;99587.63;5088948;28;40807;-79
2021/10/26 10:57:20;;;;;;;3.53;2.00;;;;;;;16.61;59.65;99578.56;5122516;27;44006;-81
2021/10/26 10:59:52;;;;;;;2.50;1.93;;;;;;;16.75;59.24;99581.09;5088770;28;41937;-75
2021/10/26 11:02:22;;;;;;;4.37;2.50;;;;;;;16.90;58.97;99590.63;5071013;28;42355;-81
2021/10/26 11:04:52;;;;;;;3.40;2.17;;;;;;;16.99;58.71;99594.41;5072252;28;42420;-80
2021/10/26 11:07:51;;;;;;;1.80;1.70;;;;;;;17.04;58.56;99592.25;5089549;28;42752;-80
2021/10/26 11:10:23;;;;;;;2.20;2.00;;;;;;;17.14;58.26;99587.88;5089513;28;42262;-82
2021/10/26 11:12:53;;;;;;;4.70;1.97;;;;;;;17.19;58.36;99580.31;5088530;28;39465;-80
2021/10/26 11:15:23;;;;;;;1.70;1.60;;;;;;;17.28;56.98;99595.69;5086427;28;41042;-76
2021/10/26 11:17:52;;;;;;;1.80;1.70;;;;;;;17.26;56.93;99592.28;5088791;28;42882;-77
2021/10/26 11:20:56;;;;;;;2.37;2.17;;;;;;;17.23;57.28;99592.50;5087254;28;41157;-78
2021/10/26 11:23:42;;;;;;;2.67;1.53;;;;;;;17.23;57.10;99584.47;5086818;28;40063;-77
2021/10/26 11:26:17;;;;;;;2.40;1.57;;;;;;;17.19;57.09;99583.00;5068421;28;40530;-77
2021/10/26 11:28:50;;;;;;;1.93;1.77;;;;;;;17.27;57.19;99585.94;5086328;28;42656;-76
2021/10/26 11:31:31;;;;;;;2.07;1.63;;;;;;;17.36;56.85;99598.59;5086157;28;42135;-76
2021/10/26 11:34:09;;;;;;;2.27;1.50;;;;;;;17.44;56.38;99590.81;5068376;28;38465;-76
2021/10/26 11:36:38;;;;;;;2.60;2.20;;;;;;;17.45;56.61;99592.50;5066543;28;42022;-77
2021/10/26 11:39:17;;;;;;;2.00;1.90;;;;;;;17.47;56.46;99587.03;5067083;28;42626;-77
2021/10/26 11:41:45;;;;;;;1.57;1.47;;;;;;;17.45;56.47;99592.50;5083290;28;43180;-77
2021/10/26 11:44:19;;;;;;;1.83;1.50;;;;;;;17.31;56.68;99576.69;5087939;28;39769;-76
2021/10/26 11:46:50;;;;;;;2.30;1.73;;;;;;;17.31;56.94;99590.06;5070199;28;41379;-78
2021/10/26 11:49:20;;;;;;;1.60;1.40;;;;;;;17.19;56.56;99591.03;5088423;28;43661;-77
2021/10/26 11:51:50;;;;;;;2.33;1.40;;;;;;;17.14;56.25;99602.09;5088388;28;42207;-77
2021/10/26 11:54:22;;;;;;;1.73;1.60;;;;;;;17.01;56.11;99579.09;5084778;28;40809;-79
2021/10/26 11:56:51;;;;;;;1.57;1.40;;;;;;;17.14;56.44;99574.50;5086432;28;41553;-78
2021/10/26 11:59:34;;;;;;;1.40;1.23;;;;;;;17.43;56.32;99594.44;5068300;28;42252;-81
2021/10/26 12:02:22;;;;;;;1.40;1.30;;;;;;;17.58;55.94;99590.56;5085100;28;41665;-77
2021/10/26 12:04:55;;;;;;;1.73;1.27;;;;;;;17.67;55.85;99593.53;5069928;28;38832;-77
2021/10/26 12:07:25;;;;;;;1.60;1.50;;;;;;;17.85;55.05;99595.56;5069999;28;42155;-79
2021/10/26 12:09:56;;;;;;;1.40;1.30;;;;;;;17.98;54.77;99595.44;5088796;28;43577;-79
2021/10/26 12:12:25;;;;;;;1.63;1.40;;;;;;;18.20;54.72;99600.75;5069958;28;41207;-79
2021/10/26 12:14:55;;;;;;;1.37;1.27;;;;;;;18.92;54.26;99598.28;5086031;28;41162;-78
2021/10/26 12:17:41;;;;;;;1.60;1.40;;;;;;;19.57;51.91;99605.19;5070884;28;43358;-79
2021/10/26 12:20:16;;;;;;;1.40;1.30;;;;;;;19.62;51.67;99600.28;5069718;28;44788;-83
2021/10/26 12:22:49;;;;;;;1.43;1.33;;;;;;;19.71;51.44;99607.53;5085888;28;42413;-80
2021/10/26 12:25:24;;;;;;;1.40;1.27;;;;;;;19.80;50.77;99613.06;5069476;28;40577;-79
2021/10/26 12:28:02;;;;;;;1.50;1.40;;;;;;;19.85;50.88;99616.22;5088871;28;41605;-80
2021/10/26 12:30:31;;;;;;;2.23;1.50;;;;;;;19.82;50.51;99611.09;5068570;28;41944;-76
2021/10/26 12:33:01;;;;;;;2.27;1.33;;;;;;;19.89;50.41;99623.03;5086961;28;42014;-76
2021/10/26 12:35:31;;;;;;;1.27;1.17;;;;;;;19.99;50.72;99611.31;5086725;28;40916;-76
2021/10/26 12:38:26;;;;;;;1.67;1.40;;;;;;;20.48;50.59;99606.06;5086475;28;41999;-78
2021/10/26 12:40:58;;;;;;;1.40;1.30;;;;;;;20.94;49.24;99618.81;5085916;28;43867;-77
2021/10/26 12:43:28;;;;;;;3.70;1.43;;;;;;;21.48;48.53;99615.47;5087313;28;42918;-78
2021/10/26 12:45:58;;;;;;;1.60;1.50;;;;;;;22.11;46.83;99621.91;5069653;28;39208;-77
2021/10/26 12:48:33;;;;;;;2.50;1.40;;;;;;;24.25;43.62;99633.25;5085908;28;43311;-78
2021/10/26 12:51:02;;;;;;;2.07;1.43;;;;;;;24.49;41.93;99638.72;5065239;28;43130;-80
2021/10/26 12:53:34;;;;;;;1.73;1.50;;;;;;;23.77;42.57;99626.56;5069098;28;42586;-78
2021/10/26 12:56:26;;;;;;;2.57;1.37;;;;;;;23.17;43.20;99607.59;5087410;28;41153;-85
2021/10/26 12:58:54;;;;;;;1.30;1.20;;;;;;;23.13;43.28;99619.72;5069438;28;40955;-78
2021/10/26 13:01:29;;;;;;;1.93;1.60;;;;;;;23.25;42.63;99618.44;5085946;28;43309;-80
2021/10/26 13:04:15;;;;;;;1.37;1.27;;;;;;;23.24;43.25;99614.03;5086746;28;42192;-78
2021/10/26 13:06:52;;;;;;;1.57;1.20;;;;;;;22.83;42.43;99574.22;5086639;28;39584;-78
2021/10/26 13:09:25;;;;;;;1.90;1.80;;;;;;;22.44;43.18;99606.91;5069113;28;42247;-77
2021/10/26 13:12:05;;;;;;;1.97;1.37;;;;;;;21.64;44.64;99559.06;5087219;28;42626;-77
2021/10/26 13:14:40;;;;;;;1.30;1.03;;;;;;;21.54;45.99;99596.00;5068323;28;41322;-77
2021/10/26 13:17:28;;;;;;;1.97;1.30;;;;;;;21.26;45.17;99596.97;5083034;28;40678;-79
2021/10/26 13:20:20;;;;;;;1.30;1.10;;;;;;;20.81;46.23;99594.84;5067868;28;40642;-79
2021/10/26 13:23:12;;;;;;;1.10;1.00;;;;;;;21.20;46.09;99594.84;5066223;28;43279;-79
2021/10/26 13:25:44;;;;;;;1.53;1.43;;;;;;;21.39;45.28;99573.22;5066190;28;41874;-78
2021/10/26 13:28:15;;;;;;;1.53;1.43;;;;;;;22.36;43.71;99596.03;5084471;28;40035;-76
2021/10/26 13:30:47;;;;;;;3.13;2.00;;;;;;;24.02;41.50;99610.47;5103503;28;43713;-77
2021/10/26 13:33:15;;;;;;;2.00;1.13;;;;;;;23.88;40.35;99628.16;5087967;28;41981;-79
2021/10/26 13:35:43;;;;;;;1.10;1.03;;;;;;;23.14;41.50;99625.97;5088980;28;42271;-80
2021/10/26 13:38:11;;;;;;;1.63;1.20;;;;;;;22.68;42.37;99603.59;5069747;28;39639;-80
2021/10/26 13:40:42;;;;;;;1.03;1.03;;;;;;;22.17;42.94;99609.66;5073042;28;41045;-79
2021/10/26 13:43:10;;;;;;;1.10;0.80;;;;;;;21.65;43.91;99622.78;5088215;28;43663;-77